Time;durP1;ratioP1;P1;durP2;ratioP2;P2;SDS_P1;SDS_P2;PMS_P1;PMS_P2;Temp;Humidity;BMP_temperature;BMP_pressure;BME280_temperature;BME280_humidity;BME280_pressure;Samples;Min_cycle;Max_cycle;Signal;HPM_P1;HPM_P2
2024/02/16 00:02:08;;;;;;;;;;;;;;;11.01;53.28;100802.09;4913781;28;99802;-67
2024/02/16 00:04:35;;;;;;;;;;;;;;;11.09;53.52;100791.91;4919643;28;98113;-68
2024/02/16 00:07:02;;;;;;;;;;;;;;;11.12;53.69;100788.66;4914226;28;100050;-65
2024/02/16 00:09:28;;;;;;;;;;;;;;;11.18;53.37;100790.31;4895268;28;98248;-68
2024/02/16 00:11:54;;;;;;;;;;;;;;;11.20;53.46;100791.69;4904328;28;98464;-65
2024/02/16 00:14:23;;;;;;;;;;;;;;;11.21;53.58;100795.19;4897823;28;98302;-65
2024/02/16 00:16:51;;;;;;;;;;;;;;;11.23;53.36;100791.13;4904109;28;98556;-65
2024/02/16 00:19:17;;;;;;;;;;;;;;;11.24;53.62;100791.97;4898862;28;98124;-68
2024/02/16 00:21:43;;;;;;;;;;;;;;;11.23;53.54;100790.31;4931930;28;99206;-68
2024/02/16 00:24:10;;;;;;;;;;;;;;;11.23;53.43;100795.72;4902116;28;98407;-68
2024/02/16 00:26:39;;;;;;;;;;;;;;;11.24;53.41;100794.66;4908923;28;98451;-65
2024/02/16 00:29:06;;;;;;;;;;;;;;;11.22;53.45;100792.22;4930871;28;98010;-68
2024/02/16 00:31:32;;;;;;;;;;;;;;;11.21;53.30;100790.59;4914814;28;98433;-68
2024/02/16 00:33:58;;;;;;;;;;;;;;;11.20;53.50;100794.38;4904066;28;98237;-65
2024/02/16 00:36:26;;;;;;;;;;;;;;;11.19;53.27;100790.03;4914806;28;100077;-68
2024/02/16 00:38:51;;;;;;;;;;;;;;;11.17;53.41;100784.09;4920784;28;98427;-67
2024/02/16 00:41:20;;;;;;;;;;;;;;;11.16;53.56;100777.09;4920122;28;99308;-65
2024/02/16 00:43:52;;;;;;;;;;;;;;;11.14;53.52;100779.22;4936667;28;98106;-65
2024/02/16 00:46:19;;;;;;;;;;;;;;;11.14;53.44;100773.03;4932297;28;99490;-65
2024/02/16 00:48:46;;;;;;;;;;;;;;;11.11;53.42;100771.66;4899087;28;98054;-65
2024/02/16 00:51:13;;;;;;;;;;;;;;;11.10;53.27;100774.63;4898816;28;98589;-65
2024/02/16 00:53:40;;;;;;;;;;;;;;;11.07;53.45;100768.66;4915633;28;98194;-67
2024/02/16 00:56:07;;;;;;;;;;;;;;;11.05;53.68;100767.31;4904071;28;98561;-68
2024/02/16 00:58:33;;;;;;;;;;;;;;;11.03;53.55;100764.88;4917649;28;98065;-68
2024/02/16 01:01:00;;;;;;;;;;;;;;;11.02;53.71;100773.25;4902745;28;98154;-65
2024/02/16 01:03:29;;;;;;;;;;;;;;;11.00;53.55;100769.97;4913020;28;98699;-65
2024/02/16 01:05:55;;;;;;;;;;;;;;;10.99;53.72;100765.66;4915034;28;98124;-65
2024/02/16 01:08:23;;;;;;;;;;;;;;;10.97;53.54;100765.13;4911835;28;98381;-68
2024/02/16 01:10:49;;;;;;;;;;;;;;;10.96;53.48;100763.47;4900257;28;98231;-68
2024/02/16 01:13:15;;;;;;;;;;;;;;;10.94;53.53;100768.34;4900794;28;98436;-67
2024/02/16 01:15:43;;;;;;;;;;;;;;;10.91;53.72;100766.97;4913935;28;98408;-67
2024/02/16 01:18:11;;;;;;;;;;;;;;;10.91;53.30;100761.59;4919717;28;98383;-65
2024/02/16 01:20:38;;;;;;;;;;;;;;;10.89;53.42;100762.94;4904661;28;98898;-67
2024/02/16 01:23:05;;;;;;;;;;;;;;;10.88;53.37;100758.59;4897166;28;98088;-68
2024/02/16 01:25:35;;;;;;;;;;;;;;;10.86;53.62;100749.97;4913300;28;98408;-65
2024/02/16 01:28:01;;;;;;;;;;;;;;;10.85;53.33;100764.53;4916258;28;99175;-67
2024/02/16 01:30:29;;;;;;;;;;;;;;;10.82;53.50;100766.66;4913834;28;98722;-65
2024/02/16 01:32:55;;;;;;;;;;;;;;;10.81;53.62;100775.84;4901056;28;98295;-67
2024/02/16 01:35:22;;;;;;;;;;;;;;;10.80;53.29;100768.00;4911578;28;100735;-67
2024/02/16 01:37:49;;;;;;;;;;;;;;;10.77;53.65;100771.22;4902016;28;98543;-67
2024/02/16 01:40:17;;;;;;;;;;;;;;;10.76;53.64;100765.00;4911304;28;98081;-67
2024/02/16 01:42:44;;;;;;;;;;;;;;;10.75;53.44;100766.09;4928077;28;98634;-65
2024/02/16 01:45:12;;;;;;;;;;;;;;;10.73;53.62;100759.34;4916105;28;98026;-65
2024/02/16 01:47:42;;;;;;;;;;;;;;;10.71;53.43;100764.97;4911087;28;99328;-65
2024/02/16 01:50:11;;;;;;;;;;;;;;;10.70;53.47;100757.97;4903548;28;98087;-67
2024/02/16 01:52:37;;;;;;;;;;;;;;;10.68;53.34;100760.09;4897132;28;98592;-67
2024/02/16 01:55:10;;;;;;;;;;;;;;;10.66;53.23;100751.47;4914891;28;98610;-65
2024/02/16 01:57:38;;;;;;;;;;;;;;;10.65;53.35;100747.16;4912440;28;98215;-67
2024/02/16 02:00:07;;;;;;;;;;;;;;;10.64;53.42;100753.59;4934714;28;98983;-64
2024/02/16 02:02:37;;;;;;;;;;;;;;;10.62;53.72;100749.56;4904472;28;98059;-65
2024/02/16 02:05:04;;;;;;;;;;;;;;;10.61;53.46;100750.63;4916905;28;98134;-67
2024/02/16 02:07:32;;;;;;;;;;;;;;;10.60;53.46;100747.13;4918156;28;100128;-65
2024/02/16 02:09:59;;;;;;;;;;;;;;;10.58;53.63;100738.50;4909269;28;98011;-67
2024/02/16 02:12:25;;;;;;;;;;;;;;;10.57;53.41;100740.38;4900662;28;98577;-67
2024/02/16 02:14:52;;;;;;;;;;;;;;;10.55;53.27;100737.13;4902259;28;97915;-65
2024/02/16 02:17:19;;;;;;;;;;;;;;;10.55;53.58;100733.63;4902219;28;98320;-67
2024/02/16 02:19:48;;;;;;;;;;;;;;;10.53;53.55;100731.19;4913101;28;98068;-65
2024/02/16 02:22:18;;;;;;;;;;;;;;;10.52;53.31;100729.53;4930097;28;98307;-67
2024/02/16 02:24:48;;;;;;;;;;;;;;;10.51;53.56;100730.63;4930206;28;98493;-65
2024/02/16 02:27:18;;;;;;;;;;;;;;;10.49;53.57;100724.69;4916248;28;98602;-65
2024/02/16 02:29:51;;;;;;;;;;;;;;;10.49;53.28;100723.88;4895056;28;98154;-65
2024/02/16 02:32:19;;;;;;;;;;;;;;;10.48;53.44;100716.84;4900775;28;99929;-65
2024/02/16 02:34:47;;;;;;;;;;;;;;;10.46;53.49;100722.53;4915241;28;98372;-65
2024/02/16 02:37:13;;;;;;;;;;;;;;;10.44;53.19;100719.25;4913242;28;98202;-67
2024/02/16 02:39:40;;;;;;;;;;;;;;;10.44;53.31;100707.66;4917656;28;98160;-65
2024/02/16 02:42:08;;;;;;;;;;;;;;;10.42;53.42;100709.81;4913475;28;98320;-67
2024/02/16 02:44:35;;;;;;;;;;;;;;;10.41;53.45;100702.78;4900240;28;98017;-69
2024/02/16 02:47:05;;;;;;;;;;;;;;;10.40;53.16;100710.06;4931826;28;98066;-65
2024/02/16 02:49:34;;;;;;;;;;;;;;;10.39;53.28;100704.94;4930417;28;98171;-65
2024/02/16 02:52:01;;;;;;;;;;;;;;;10.38;53.59;100706.03;4915594;28;99764;-65
2024/02/16 02:54:28;;;;;;;;;;;;;;;10.36;53.73;100714.34;4933449;28;98301;-67
2024/02/16 02:56:54;;;;;;;;;;;;;;;10.36;53.42;100711.66;4899747;28;99195;-67
2024/02/16 02:59:21;;;;;;;;;;;;;;;10.36;53.46;100710.84;4914556;28;99369;-67
2024/02/16 03:01:49;;;;;;;;;;;;;;;10.34;53.23;100713.81;4930878;28;98123;-64
2024/02/16 03:04:15;;;;;;;;;;;;;;;10.35;53.23;100720.81;4898674;28;98264;-67
2024/02/16 03:06:42;;;;;;;;;;;;;;;10.34;53.16;100715.72;4894949;28;98076;-65
2024/02/16 03:09:09;;;;;;;;;;;;;;;10.35;53.33;100717.31;4930113;28;99483;-64
2024/02/16 03:11:38;;;;;;;;;;;;;;;10.34;53.25;100719.22;4913009;28;98436;-67
2024/02/16 03:14:09;;;;;;;;;;;;;;;10.33;53.53;100714.88;4899288;28;100632;-65
2024/02/16 03:16:35;;;;;;;;;;;;;;;10.34;53.48;100707.63;4911184;28;98261;-66
2024/02/16 03:19:01;;;;;;;;;;;;;;;10.34;53.53;100713.00;4896382;28;98057;-67
2024/02/16 03:21:28;;;;;;;;;;;;;;;10.32;53.58;100705.97;4898810;28;98305;-65
2024/02/16 03:23:54;;;;;;;;;;;;;;;10.32;53.46;100710.56;4910997;28;98501;-67
2024/02/16 03:26:21;;;;;;;;;;;;;;;10.31;53.22;100701.66;4930236;28;97986;-67
2024/02/16 03:28:47;;;;;;;;;;;;;;;10.31;53.38;100700.84;4901741;28;98121;-64
2024/02/16 03:31:21;;;;;;;;;;;;;;;10.31;53.08;100695.47;4919299;28;98463;-64
2024/02/16 03:33:51;;;;;;;;;;;;;;;10.31;53.14;100688.19;4930788;28;98608;-65
2024/02/16 03:36:22;;;;;;;;;;;;;;;10.31;53.17;100698.16;4911290;28;98545;-65
2024/02/16 03:38:52;;;;;;;;;;;;;;;10.30;53.62;100691.16;4912172;28;99661;-64
2024/02/16 03:41:23;;;;;;;;;;;;;;;10.29;53.41;100687.63;4940691;28;98481;-67
2024/02/16 03:43:50;;;;;;;;;;;;;;;10.29;53.36;100681.44;4901008;28;98147;-67
2024/02/16 03:46:16;;;;;;;;;;;;;;;10.28;53.12;100679.81;4927269;28;98498;-67
2024/02/16 03:48:44;;;;;;;;;;;;;;;10.29;53.68;100676.03;4915936;28;98461;-67
2024/02/16 03:51:11;;;;;;;;;;;;;;;10.28;53.28;100679.81;4916260;28;99476;-65
2024/02/16 03:53:37;;;;;;;;;;;;;;;10.28;53.32;100686.00;4897630;28;98535;-67
2024/02/16 03:56:05;;;;;;;;;;;;;;;10.27;53.32;100680.91;4927359;28;98771;-65
2024/02/16 03:58:32;;;;;;;;;;;;;;;10.27;53.52;100689.78;4916983;28;98273;-65
2024/02/16 04:00:59;;;;;;;;;;;;;;;10.27;53.50;100689.78;4914529;28;99502;-67
2024/02/16 04:03:26;;;;;;;;;;;;;;;10.27;53.42;100691.69;4897485;28;99869;-64
2024/02/16 04:05:55;;;;;;;;;;;;;;;10.26;53.44;100690.88;4915750;28;98051;-65
2024/02/16 04:08:22;;;;;;;;;;;;;;;10.27;53.33;100687.09;4901102;28;98432;-67
2024/02/16 04:10:49;;;;;;;;;;;;;;;10.27;53.18;100694.38;4935464;28;98078;-65
2024/02/16 04:13:17;;;;;;;;;;;;;;;10.28;53.24;100695.97;4933585;28;98199;-65
2024/02/16 04:15:44;;;;;;;;;;;;;;;10.27;53.33;100703.25;4903179;28;99372;-64
2024/02/16 04:18:11;;;;;;;;;;;;;;;10.27;53.18;100697.88;4901809;28;98083;-65
2024/02/16 04:20:37;;;;;;;;;;;;;;;10.27;53.25;100699.75;4900486;28;98259;-67
2024/02/16 04:23:04;;;;;;;;;;;;;;;10.26;53.34;100695.44;4915769;28;98360;-65
2024/02/16 04:25:31;;;;;;;;;;;;;;;10.25;53.61;100700.00;4931949;28;98086;-67
2024/02/16 04:27:58;;;;;;;;;;;;;;;10.24;53.61;100686.75;4898597;28;98154;-67
2024/02/16 04:30:25;;;;;;;;;;;;;;;10.24;53.57;100695.66;4902482;28;98008;-67
2024/02/16 04:32:52;;;;;;;;;;;;;;;10.24;53.19;100706.44;4936796;28;98888;-65
2024/02/16 04:35:19;;;;;;;;;;;;;;;10.23;53.53;100696.72;4901443;28;98162;-69
2024/02/16 04:37:45;;;;;;;;;;;;;;;10.22;53.51;100697.81;4912430;28;98533;-65
2024/02/16 04:40:12;;;;;;;;;;;;;;;10.22;53.31;100700.50;4902291;28;98656;-65
2024/02/16 04:42:41;;;;;;;;;;;;;;;10.21;53.22;100698.06;4914546;28;98203;-64
2024/02/16 04:45:10;;;;;;;;;;;;;;;10.20;53.67;100702.63;4893654;28;98333;-68
2024/02/16 04:47:37;;;;;;;;;;;;;;;10.20;53.48;100708.03;4901428;28;98354;-65
2024/02/16 04:50:03;;;;;;;;;;;;;;;10.20;53.58;100701.81;4914835;28;98125;-67
2024/02/16 04:52:30;;;;;;;;;;;;;;;10.19;53.45;100692.13;4900954;28;98345;-65
2024/02/16 04:54:59;;;;;;;;;;;;;;;10.18;53.46;100675.16;4912034;28;98456;-67
2024/02/16 04:57:25;;;;;;;;;;;;;;;10.17;53.58;100676.22;4908635;28;98513;-67
2024/02/16 04:59:52;;;;;;;;;;;;;;;10.17;53.71;100678.09;4948513;28;98418;-68
2024/02/16 05:02:19;;;;;;;;;;;;;;;10.14;53.44;100671.34;4919403;28;98557;-67
2024/02/16 05:04:51;;;;;;;;;;;;;;;10.15;53.41;100675.66;4916808;28;100107;-65
2024/02/16 05:07:20;;;;;;;;;;;;;;;10.14;53.34;100689.38;4917855;28;98040;-65
2024/02/16 05:09:49;;;;;;;;;;;;;;;10.14;53.49;100692.91;4901113;28;98081;-67
2024/02/16 05:12:18;;;;;;;;;;;;;;;10.13;53.27;100688.56;4913101;28;98257;-67
2024/02/16 05:14:48;;;;;;;;;;;;;;;10.13;53.09;100679.69;4915861;28;102516;-65
2024/02/16 05:17:18;;;;;;;;;;;;;;;10.13;53.49;100674.28;4903434;28;98070;-64
2024/02/16 05:19:45;;;;;;;;;;;;;;;10.13;53.33;100687.75;4913831;28;98230;-65
2024/02/16 05:22:15;;;;;;;;;;;;;;;10.12;53.10;100684.25;4916253;28;98816;-65
2024/02/16 05:24:42;;;;;;;;;;;;;;;10.11;53.57;100674.56;4914453;28;98277;-65
2024/02/16 05:27:10;;;;;;;;;;;;;;;10.12;53.26;100675.38;4901133;28;98349;-67
2024/02/16 05:29:37;;;;;;;;;;;;;;;10.11;53.33;100681.84;4912873;28;99776;-67
2024/02/16 05:32:03;;;;;;;;;;;;;;;10.11;53.68;100676.44;4931206;28;99274;-67
2024/02/16 05:34:37;;;;;;;;;;;;;;;10.10;53.60;100681.03;4899401;28;99370;-65
2024/02/16 05:37:04;;;;;;;;;;;;;;;10.09;53.29;100682.06;4898116;28;98148;-67
2024/02/16 05:39:31;;;;;;;;;;;;;;;10.09;53.64;100669.41;4898854;28;101561;-67
2024/02/16 05:41:58;;;;;;;;;;;;;;;10.08;53.50;100670.50;4918022;28;98506;-65
2024/02/16 05:44:25;;;;;;;;;;;;;;;10.09;53.72;100680.19;4912856;28;98589;-65
2024/02/16 05:46:51;;;;;;;;;;;;;;;10.07;53.55;100673.47;4899834;28;98532;-67
2024/02/16 05:49:18;;;;;;;;;;;;;;;10.09;53.55;100674.00;4916701;28;98221;-67
2024/02/16 05:52:17;;;;;;;;;;;;;;;10.08;53.57;100669.69;4932620;28;98951;-68
2024/02/16 05:54:31;;;;;;;;;;;;;;;10.08;53.43;100673.19;4919163;28;98310;-67
2024/02/16 05:56:58;;;;;;;;;;;;;;;10.07;53.52;100676.97;4932681;28;98071;-65
2024/02/16 05:59:26;;;;;;;;;;;;;;;10.08;53.55;100667.00;4933536;28;98585;-65
2024/02/16 06:01:54;;;;;;;;;;;;;;;10.07;53.32;100662.69;4897168;28;98192;-65
2024/02/16 06:04:21;;;;;;;;;;;;;;;10.06;53.73;100656.50;4922035;28;98307;-67
2024/02/16 06:06:47;;;;;;;;;;;;;;;10.06;53.12;100645.72;4899979;28;98408;-69
2024/02/16 06:09:18;;;;;;;;;;;;;;;10.05;53.68;100649.47;4901730;28;98323;-65
2024/02/16 06:11:46;;;;;;;;;;;;;;;10.06;53.13;100651.09;4904111;28;100551;-68
2024/02/16 06:14:13;;;;;;;;;;;;;;;10.06;52.97;100650.25;4900457;28;98107;-67
2024/02/16 06:16:39;;;;;;;;;;;;;;;10.06;53.69;100659.19;4915910;28;98683;-68
2024/02/16 06:19:08;;;;;;;;;;;;;;;10.06;53.47;100653.78;4918022;28;98518;-68
2024/02/16 06:21:37;;;;;;;;;;;;;;;10.07;53.63;100650.03;4936115;28;99786;-68
2024/02/16 06:24:04;;;;;;;;;;;;;;;10.06;53.27;100656.50;4914149;28;99572;-68
2024/02/16 06:26:33;;;;;;;;;;;;;;;10.07;53.19;100650.03;4929245;28;100691;-65
2024/02/16 06:29:02;;;;;;;;;;;;;;;10.08;52.96;100658.91;4901629;28;98129;-68
2024/02/16 06:31:28;;;;;;;;;;;;;;;10.08;53.28;100673.19;4933272;28;98179;-67
2024/02/16 06:33:55;;;;;;;;;;;;;;;10.10;53.24;100667.56;4898910;28;98307;-68
2024/02/16 06:36:23;;;;;;;;;;;;;;;10.11;53.30;100677.25;4895493;28;98764;-65
2024/02/16 06:38:49;;;;;;;;;;;;;;;10.14;53.07;100678.59;4901971;28;98274;-68
2024/02/16 06:41:16;;;;;;;;;;;;;;;10.13;53.15;100677.78;4897415;28;99460;-65
2024/02/16 06:43:43;;;;;;;;;;;;;;;10.17;53.21;100691.56;4915210;28;98041;-67
2024/02/16 06:46:10;;;;;;;;;;;;;;;10.19;53.13;100686.75;4911793;28;98075;-65
2024/02/16 06:48:37;;;;;;;;;;;;;;;10.22;53.38;100686.22;4899425;28;98072;-65
2024/02/16 06:51:05;;;;;;;;;;;;;;;10.26;53.37;100690.88;4910676;28;98261;-66
2024/02/16 06:53:33;;;;;;;;;;;;;;;10.28;52.76;100683.31;4900190;28;99140;-66
2024/02/16 06:55:59;;;;;;;;;;;;;;;10.30;53.14;100689.28;4908241;28;101007;-68
2024/02/16 06:58:26;;;;;;;;;;;;;;;10.34;53.33;100688.75;4913288;28;98220;-66
2024/02/16 07:00:54;;;;;;;;;;;;;;;10.37;53.08;100691.72;4913879;28;98030;-65
2024/02/16 07:03:21;;;;;;;;;;;;;;;10.39;53.36;100689.59;4900792;28;97979;-66
2024/02/16 07:05:49;;;;;;;;;;;;;;;10.42;53.28;100686.38;4896374;28;98431;-69
2024/02/16 07:08:18;;;;;;;;;;;;;;;10.46;53.20;100689.38;4903143;28;98404;-66
2024/02/16 07:10:47;;;;;;;;;;;;;;;10.49;52.95;100694.22;4943749;28;98320;-66
2024/02/16 07:13:17;;;;;;;;;;;;;;;10.50;53.26;100683.19;4912662;28;98491;-66
2024/02/16 07:15:45;;;;;;;;;;;;;;;10.52;53.29;100681.03;4902035;28;98620;-66
2024/02/16 07:18:17;;;;;;;;;;;;;;;10.54;53.28;100686.19;4914066;28;98893;-66
2024/02/16 07:20:45;;;;;;;;;;;;;;;10.55;53.24;100683.22;4928222;28;98316;-68
2024/02/16 07:23:12;;;;;;;;;;;;;;;10.58;53.21;100673.81;4900886;28;98697;-66
2024/02/16 07:25:39;;;;;;;;;;;;;;;10.70;53.10;100682.47;4910549;28;98097;-68
2024/02/16 07:28:05;;;;;;;;;;;;;;;10.74;52.85;100677.38;4901008;28;98172;-68
2024/02/16 07:30:31;;;;;;;;;;;;;;;10.84;52.87;100672.00;4910215;28;99933;-67
2024/02/16 07:32:58;;;;;;;;;;;;;;;11.11;52.59;100679.13;4902231;28;98018;-68
2024/02/16 07:35:25;;;;;;;;;;;;;;;11.34;52.39;100672.44;4893996;28;98213;-68
2024/02/16 07:37:53;;;;;;;;;;;;;;;11.62;52.01;100681.91;4915907;28;98077;-69
2024/02/16 07:40:20;;;;;;;;;;;;;;;11.91;52.01;100676.84;4896180;28;99601;-69
2024/02/16 07:42:53;;;;;;;;;;;;;;;12.21;51.66;100681.38;4901441;28;98492;-66
2024/02/16 07:45:20;;;;;;;;;;;;;;;12.50;51.34;100679.72;4920970;28;100433;-66
2024/02/16 07:47:50;;;;;;;;;;;;;;;12.79;51.59;100673.66;4922618;28;98085;-66
2024/02/16 07:50:20;;;;;;;;;;;;;;;13.14;51.06;100671.88;4903748;28;98193;-66
2024/02/16 07:52:49;;;;;;;;;;;;;;;13.57;50.61;100672.16;4918841;28;103203;-66
2024/02/16 07:55:18;;;;;;;;;;;;;;;13.60;51.10;100664.28;4936926;28;99824;-66
2024/02/16 07:57:45;;;;;;;;;;;;;;;13.51;51.66;100665.97;4914425;28;98389;-68
2024/02/16 08:00:15;;;;;;;;;;;;;;;13.63;51.52;100665.59;4914092;28;98577;-66
2024/02/16 08:02:45;;;;;;;;;;;;;;;14.38;50.76;100663.31;4917689;28;98234;-69
2024/02/16 08:05:12;;;;;;;;;;;;;;;15.09;49.90;100650.81;4912492;28;99200;-69
2024/02/16 08:07:41;;;;;;;;;;;;;;;15.60;49.55;100643.78;4922021;28;98156;-69
2024/02/16 08:10:08;;;;;;;;;;;;;;;15.23;50.56;100654.38;4906043;28;98278;-66
2024/02/16 08:12:35;;;;;;;;;;;;;;;15.27;50.82;100653.81;4935385;28;97971;-69
2024/02/16 08:15:06;;;;;;;;;;;;;;;14.95;51.49;100647.19;4905091;28;98073;-67
2024/02/16 08:17:39;;;;;;;;;;;;;;;14.70;51.75;100651.84;4916404;28;98418;-66
2024/02/16 08:20:09;;;;;;;;;;;;;;;14.53;51.89;100659.63;4878524;28;98088;-66
2024/02/16 08:22:36;;;;;;;;;;;;;;;14.39;51.89;100656.78;4882055;28;98306;-66
2024/02/16 08:25:04;;;;;;;;;;;;;;;14.27;52.13;100659.09;4881652;28;100655;-66
2024/02/16 08:27:32;;;;;;;;;;;;;;;14.17;52.21;100660.00;4894064;28;98216;-66
2024/02/16 08:29:59;;;;;;;;;;;;;;;14.10;52.38;100650.56;4892487;28;98038;-68
2024/02/16 08:32:26;;;;;;;;;;;;;;;14.03;52.43;100647.38;4898829;28;98245;-66
2024/02/16 08:34:53;;;;;;;;;;;;;;;13.96;52.18;100640.41;4894599;28;98009;-69
2024/02/16 08:37:22;;;;;;;;;;;;;;;13.92;52.22;100644.78;4929601;28;99009;-66
2024/02/16 08:39:49;;;;;;;;;;;;;;;13.92;52.30;100642.06;4894347;28;98324;-66
2024/02/16 08:42:17;;;;;;;;;;;;;;;13.93;52.54;100645.59;4901951;28;98305;-66
2024/02/16 08:44:43;;;;;;;;;;;;;;;13.92;52.60;100643.97;4880238;28;98435;-69
2024/02/16 08:47:09;;;;;;;;;;;;;;;13.95;52.10;100646.09;4893523;28;98182;-67
2024/02/16 08:49:38;;;;;;;;;;;;;;;13.99;52.50;100642.56;4915584;28;99358;-66
2024/02/16 08:52:06;;;;;;;;;;;;;;;14.02;52.43;100641.16;4879103;28;99254;-69
2024/02/16 08:54:34;;;;;;;;;;;;;;;14.09;52.26;100640.84;4915756;28;99194;-66
2024/02/16 08:57:02;;;;;;;;;;;;;;;14.17;52.12;100643.72;4881405;28;98127;-66
2024/02/16 08:59:30;;;;;;;;;;;;;;;14.27;52.03;100644.72;4878630;28;98677;-66
2024/02/16 09:02:02;;;;;;;;;;;;;;;14.35;51.86;100644.91;4914627;28;98232;-69
2024/02/16 09:04:30;;;;;;;;;;;;;;;14.45;52.02;100652.91;4916860;28;98244;-66
2024/02/16 09:06:56;;;;;;;;;;;;;;;14.66;51.73;100641.88;4881451;28;98098;-69
2024/02/16 09:09:23;;;;;;;;;;;;;;;14.92;51.54;100654.00;4919974;28;98402;-69
2024/02/16 09:11:50;;;;;;;;;;;;;;;15.08;51.62;100648.38;4893344;28;99407;-69
2024/02/16 09:14:16;;;;;;;;;;;;;;;15.15;51.43;100648.81;4879548;28;100284;-69
2024/02/16 09:16:42;;;;;;;;;;;;;;;15.22;51.53;100641.91;4909695;28;98160;-69
2024/02/16 09:19:10;;;;;;;;;;;;;;;15.44;51.35;100644.03;4913574;28;98498;-66
2024/02/16 09:21:36;;;;;;;;;;;;;;;16.80;49.92;100632.91;4899494;28;98230;-69
2024/02/16 09:24:17;;;;;;;;;;;;;;;18.26;48.70;100623.38;4880657;28;98227;-67
2024/02/16 09:26:48;;;;;;;;;;;;;;;19.79;47.82;100626.16;4898749;28;98184;-69
2024/02/16 09:29:17;;;;;;;;;;;;;;;21.16;46.94;100623.06;4897134;28;98478;-67
2024/02/16 09:31:46;;;;;;;;;;;;;;;21.22;47.84;100638.19;4912253;28;98254;-67
2024/02/16 09:34:15;;;;;;;;;;;;;;;21.94;47.46;100647.06;4875464;28;97902;-67
2024/02/16 09:36:44;;;;;;;;;;;;;;;21.39;48.85;100650.97;4882413;28;99851;-67
2024/02/16 09:39:12;;;;;;;;;;;;;;;21.03;49.34;100655.09;4916799;28;99474;-67
2024/02/16 09:41:43;;;;;;;;;;;;;;;20.69;49.91;100652.56;4894253;28;98233;-67
2024/02/16 09:44:11;;;;;;;;;;;;;;;20.32;50.25;100644.81;4914262;28;98611;-67
2024/02/16 09:46:38;;;;;;;;;;;;;;;20.02;50.55;100646.69;4885042;28;98101;-69
2024/02/16 09:49:06;;;;;;;;;;;;;;;19.76;50.78;100641.28;4883934;28;98350;-67
2024/02/16 09:51:36;;;;;;;;;;;;;;;19.61;50.83;100645.34;4885063;28;100667;-67
2024/02/16 09:54:03;;;;;;;;;;;;;;;19.55;50.82;100651.25;4894322;28;99161;-70
2024/02/16 09:56:31;;;;;;;;;;;;;;;19.69;50.54;100656.56;4897333;28;98239;-66
2024/02/16 09:58:57;;;;;;;;;;;;;;;19.76;50.49;100643.22;4880730;28;98813;-69
2024/02/16 10:01:24;;;;;;;;;;;;;;;20.04;50.21;100654.56;4881146;28;98067;-69
2024/02/16 10:03:51;;;;;;;;;;;;;;;19.77;50.65;100647.56;4896598;28;98458;-69
2024/02/16 10:06:22;;;;;;;;;;;;;;;19.46;51.14;100653.22;4873980;28;98196;-67
2024/02/16 10:08:56;;;;;;;;;;;;;;;19.53;50.93;100648.84;4896072;28;100211;-69
2024/02/16 10:11:24;;;;;;;;;;;;;;;22.06;47.61;100647.09;4894966;28;98145;-67
2024/02/16 10:14:04;;;;;;;;;;;;;;;21.36;48.94;100650.84;4882431;28;98088;-69
2024/02/16 10:16:30;;;;;;;;;;;;;;;21.09;49.62;100647.47;4919082;28;100595;-69
2024/02/16 10:19:06;;;;;;;;;;;;;;;20.80;50.05;100645.59;4921136;28;99946;-67
2024/02/16 10:21:33;;;;;;;;;;;;;;;20.56;50.45;100648.94;4936950;28;98322;-69
2024/02/16 10:24:11;;;;;;;;;;;;;;;20.43;50.63;100637.03;4917430;28;98434;-69
2024/02/16 10:26:37;;;;;;;;;;;;;;;20.27;50.83;100644.19;4905141;28;98326;-69
2024/02/16 10:29:04;;;;;;;;;;;;;;;20.04;51.08;100632.69;4917490;28;98450;-69
2024/02/16 10:31:33;;;;;;;;;;;;;;;19.78;51.26;100639.03;4899586;28;98065;-67
2024/02/16 10:34:05;;;;;;;;;;;;;;;19.52;51.54;100630.03;4921671;28;100720;-69
2024/02/16 10:36:35;;;;;;;;;;;;;;;19.30;51.60;100631.03;4933283;28;98666;-67
2024/02/16 10:39:05;;;;;;;;;;;;;;;19.09;51.74;100625.38;4902133;28;98188;-69
2024/02/16 10:41:48;;;;;;;;;;;;;;;18.89;51.98;100618.59;4936255;28;99766;-67
2024/02/16 10:44:15;;;;;;;;;;;;;;;18.68;52.05;100625.78;4918906;28;99029;-66
2024/02/16 10:46:42;;;;;;;;;;;;;;;18.52;52.15;100628.16;4906006;28;98242;-67
2024/02/16 10:49:10;;;;;;;;;;;;;;;18.39;52.20;100627.13;4904405;28;98513;-69
2024/02/16 10:51:46;;;;;;;;;;;;;;;18.29;52.15;100622.75;4934360;28;99543;-66
2024/02/16 10:54:14;;;;;;;;;;;;;;;18.26;52.08;100615.19;4919921;28;98327;-69
2024/02/16 10:56:42;;;;;;;;;;;;;;;18.81;51.33;100608.47;4901615;28;98244;-69
2024/02/16 10:59:09;;;;;;;;;;;;;;;19.22;50.70;100604.50;4935402;28;98578;-69
2024/02/16 11:01:39;;;;;;;;;;;;;;;20.54;49.21;100602.72;4921868;28;99690;-66
2024/02/16 11:04:09;;;;;;;;;;;;;;;20.01;50.28;100609.53;4916614;28;98300;-69
2024/02/16 11:06:48;;;;;;;;;;;;;;;19.74;50.79;100612.66;4916798;28;98236;-69
2024/02/16 11:09:36;;;;;;;;;;;;;;;19.58;51.06;100606.88;4914379;28;98616;-69
2024/02/16 11:12:09;;;;;;;;;;;;;;;19.45;51.27;100603.19;4917849;28;98067;-67
2024/02/16 11:14:40;;;;;;;;;;;;;;;19.35;51.45;100617.19;4925826;28;98226;-66
2024/02/16 11:17:14;;;;;;;;;;;;;;;19.19;51.61;100611.41;4906485;28;98492;-67
2024/02/16 11:19:47;;;;;;;;;;;;;;;19.03;51.64;100611.09;4938492;28;98394;-67
2024/02/16 11:22:17;;;;;;;;;;;;;;;18.87;51.88;100607.22;4924238;28;98110;-69
2024/02/16 11:24:47;;;;;;;;;;;;;;;18.71;52.04;100603.34;4911022;28;98336;-69
2024/02/16 11:27:15;;;;;;;;;;;;;;;18.53;52.17;100599.72;4909208;28;98285;-69
2024/02/16 11:29:43;;;;;;;;;;;;;;;18.37;52.17;100602.88;4918567;28;98609;-67
2024/02/16 11:32:10;;;;;;;;;;;;;;;18.22;52.47;100597.06;4923194;28;98350;-66
2024/02/16 11:34:40;;;;;;;;;;;;;;;18.06;52.37;100596.66;4907129;28;98609;-66
2024/02/16 11:37:08;;;;;;;;;;;;;;;17.90;52.38;100602.53;4936725;28;98087;-67
2024/02/16 11:39:39;;;;;;;;;;;;;;;17.78;52.64;100607.75;4904670;28;99341;-66
2024/02/16 11:42:10;;;;;;;;;;;;;;;17.68;52.53;100602.53;4924090;28;98374;-66
2024/02/16 11:44:39;;;;;;;;;;;;;;;17.62;52.41;100606.50;4921811;28;98162;-69
2024/02/16 11:47:12;;;;;;;;;;;;;;;17.56;52.64;100600.38;4934982;28;98192;-67
2024/02/16 11:49:44;;;;;;;;;;;;;;;17.54;52.50;100605.34;4919607;28;98672;-67
2024/02/16 11:52:10;;;;;;;;;;;;;;;17.52;52.58;100599.38;4938472;28;98802;-66
2024/02/16 11:54:38;;;;;;;;;;;;;;;17.57;52.49;100606.66;4923684;28;98042;-66
2024/02/16 11:57:05;;;;;;;;;;;;;;;17.62;52.26;100601.06;4921483;28;98531;-66
2024/02/16 11:59:31;;;;;;;;;;;;;;;17.66;52.14;100599.31;4923470;28;98084;-67
2024/02/16 12:02:02;;;;;;;;;;;;;;;17.73;52.23;100593.44;4917075;28;98572;-67
2024/02/16 12:04:30;;;;;;;;;;;;;;;17.79;51.94;100589.47;4922714;28;98345;-70
2024/02/16 12:06:56;;;;;;;;;;;;;;;17.84;51.99;100595.63;4907495;28;99514;-69
2024/02/16 12:09:24;;;;;;;;;;;;;;;18.00;51.79;100587.84;4925134;28;99647;-69
2024/02/16 12:11:51;;;;;;;;;;;;;;;18.24;51.48;100598.34;4908361;28;97981;-66
2024/02/16 12:14:18;;;;;;;;;;;;;;;18.35;51.58;100604.31;4904520;28;98186;-69
2024/02/16 12:16:51;;;;;;;;;;;;;;;18.44;51.58;100602.44;4920005;28;98547;-66
2024/02/16 12:19:22;;;;;;;;;;;;;;;18.62;51.17;100593.16;4919492;28;98084;-67
2024/02/16 12:21:58;;;;;;;;;;;;;;;18.69;51.29;100597.34;4947006;28;98474;-67
2024/02/16 12:24:24;;;;;;;;;;;;;;;18.65;51.39;100592.53;4902642;28;98715;-69
2024/02/16 12:26:52;;;;;;;;;;;;;;;18.64;51.51;100596.38;4905017;28;99202;-69
2024/02/16 12:29:24;;;;;;;;;;;;;;;18.59;51.59;100596.53;4909803;28;98451;-67
2024/02/16 12:31:51;;;;;;;;;;;;;;;18.50;51.97;100589.44;4916358;28;99553;-69
2024/02/16 12:34:17;;;;;;;;;;;;;;;18.43;51.80;100595.38;4939063;28;98037;-68
2024/02/16 12:36:49;;;;;;;;;;;;;;;18.42;52.03;100587.50;4901197;28;98298;-66
2024/02/16 12:39:17;;;;;;;;;;;;;;;18.42;51.53;100588.28;4921050;28;98365;-66
2024/02/16 12:41:44;;;;;;;;;;;;;;;18.39;51.91;100589.75;4904948;28;98177;-67